SJX862 RCTP-RJSS
Flight info
| Callsign | SJX862 |
|---|---|
| Flight time | 0h 50m |
| Altitude | 41000 |
| Route | MOLKA1A MOLKA M750 IMPAL Y755 CARDS CBE Y121 SWING Y88 TENRU Y15 OWLET |
| Aircraft | A35K/H-SDE2E3GHIJ3J4J5LM1ORWXY/LB1D1 |
Departure
| Time | 2026-05-08 06:58 |
|---|---|
| Airport | Taiwan Taoyuan International Airport (RCTP) |
Arrival
| Time | 2026-05-08 07:49 |
|---|---|
| Airport | Sendai Airport (RJSS) |
| Time | Latitude | Longitude | Altitude | Speed | Heading |
|---|---|---|---|---|---|
| 2026-05-08 06:22 | 25.07929 | 121.23845 | 107 ft | 0 kts | 319° |
| 2026-05-08 06:49 | 25.07924 | 121.23850 | 107 ft | 2 kts | 318° |
| 2026-05-08 06:49 | 25.07912 | 121.23862 | 105 ft | 2 kts | 318° |
| 2026-05-08 06:49 | 25.07900 | 121.23874 | 106 ft | 2 kts | 316° |
| 2026-05-08 06:49 | 25.07888 | 121.23887 | 105 ft | 2 kts | 315° |
| 2026-05-08 06:50 | 25.07877 | 121.23900 | 104 ft | 2 kts | 313° |
| 2026-05-08 06:50 | 25.07866 | 121.23913 | 105 ft | 2 kts | 309° |
| 2026-05-08 06:50 | 25.07857 | 121.23928 | 105 ft | 2 kts | 300° |
| 2026-05-08 06:50 | 25.07850 | 121.23944 | 104 ft | 2 kts | 274° |
| 2026-05-08 06:51 | 25.07853 | 121.23959 | 104 ft | 1 kts | 232° |
| 2026-05-08 06:51 | 25.07852 | 121.23958 | 104 ft | 2 kts | 231° |
| 2026-05-08 06:51 | 25.07830 | 121.23930 | 104 ft | 9 kts | 229° |
| 2026-05-08 06:51 | 25.07764 | 121.23847 | 107 ft | 20 kts | 229° |
| 2026-05-08 06:52 | 25.07664 | 121.23720 | 107 ft | 22 kts | 225° |
| 2026-05-08 06:52 | 25.07581 | 121.23708 | 106 ft | 8 kts | 140° |
| 2026-05-08 06:52 | 25.07526 | 121.23764 | 106 ft | 13 kts | 145° |
| 2026-05-08 06:52 | 25.07441 | 121.23748 | 105 ft | 15 kts | 218° |
| 2026-05-08 06:53 | 25.07360 | 121.23653 | 105 ft | 19 kts | 229° |
| 2026-05-08 06:53 | 25.07261 | 121.23528 | 106 ft | 24 kts | 229° |
| 2026-05-08 06:53 | 25.07141 | 121.23376 | 104 ft | 29 kts | 229° |
| 2026-05-08 06:53 | 25.07001 | 121.23198 | 106 ft | 33 kts | 229° |
| 2026-05-08 06:54 | 25.06839 | 121.22993 | 105 ft | 37 kts | 229° |
| 2026-05-08 06:54 | 25.06659 | 121.22765 | 105 ft | 41 kts | 229° |
| 2026-05-08 06:54 | 25.06462 | 121.22516 | 106 ft | 45 kts | 229° |
| 2026-05-08 06:54 | 25.06294 | 121.22302 | 106 ft | 30 kts | 229° |
| 2026-05-08 06:55 | 25.06235 | 121.22259 | 106 ft | 9 kts | 189° |
| 2026-05-08 06:55 | 25.06178 | 121.22281 | 106 ft | 0 kts | 142° |
| 2026-05-08 06:56 | 25.06174 | 121.22284 | 105 ft | 4 kts | 142° |
| 2026-05-08 06:57 | 25.06116 | 121.22386 | 102 ft | 13 kts | 85° |
| 2026-05-08 06:57 | 25.06154 | 121.22440 | 104 ft | 9 kts | 53° |
| 2026-05-08 06:57 | 25.06162 | 121.22450 | 104 ft | 0 kts | 50° |
| 2026-05-08 06:58 | 25.06167 | 121.22457 | 104 ft | 8 kts | 50° |
| 2026-05-08 06:58 | 25.06405 | 121.22760 | 102 ft | 98 kts | 48° |
| 2026-05-08 06:58 | 25.07017 | 121.23528 | 326 ft | 149 kts | 47° |
| 2026-05-08 06:58 | 25.07716 | 121.24370 | 1384 ft | 151 kts | 48° |
| 2026-05-08 06:59 | 25.08503 | 121.25335 | 1934 ft | 187 kts | 51° |
| 2026-05-08 06:59 | 25.09413 | 121.26560 | 2439 ft | 222 kts | 52° |
| 2026-05-08 06:59 | 25.12723 | 121.30866 | 5077 ft | 267 kts | 47° |
| 2026-05-08 06:59 | 25.18367 | 121.37296 | 9519 ft | 304 kts | 45° |
| 2026-05-08 07:00 | 25.24841 | 121.44711 | 12761 ft | 361 kts | 44° |
| 2026-05-08 07:00 | 25.29221 | 121.54999 | 16222 ft | 391 kts | 76° |
| 2026-05-08 07:00 | 25.31549 | 121.67086 | 19510 ft | 412 kts | 77° |
| 2026-05-08 07:00 | 25.34009 | 121.79739 | 22501 ft | 430 kts | 77° |
| 2026-05-08 07:01 | 25.36572 | 121.92960 | 25029 ft | 449 kts | 77° |
| 2026-05-08 07:01 | 25.39233 | 122.06760 | 27617 ft | 470 kts | 76° |
| 2026-05-08 07:01 | 25.42128 | 122.21192 | 29960 ft | 490 kts | 70° |
| 2026-05-08 07:01 | 25.46892 | 122.35562 | 31928 ft | 506 kts | 67° |
| 2026-05-08 07:02 | 25.51878 | 122.50421 | 33837 ft | 522 kts | 67° |
| 2026-05-08 07:02 | 25.56960 | 122.65651 | 35665 ft | 527 kts | 66° |
| 2026-05-08 07:02 | 25.61997 | 122.80805 | 37744 ft | 522 kts | 65° |
| 2026-05-08 07:02 | 25.67017 | 122.95808 | 39560 ft | 515 kts | 65° |
| 2026-05-08 07:03 | 25.71966 | 123.10489 | 40806 ft | 515 kts | 65° |
| 2026-05-08 07:03 | 25.77025 | 123.25572 | 41026 ft | 527 kts | 66° |
| 2026-05-08 07:03 | 25.87865 | 123.55753 | 41025 ft | 519 kts | 49° |
| 2026-05-08 07:04 | 25.98951 | 123.64848 | 41029 ft | 492 kts | 18° |
| 2026-05-08 07:04 | 26.11382 | 123.71319 | 41024 ft | 494 kts | 18° |
| 2026-05-08 07:04 | 26.36249 | 123.84367 | 41038 ft | 495 kts | 18° |
| 2026-05-08 07:05 | 26.61150 | 123.97504 | 41041 ft | 496 kts | 18° |
| 2026-05-08 07:05 | 26.71838 | 124.07772 | 41045 ft | 520 kts | 44° |
| 2026-05-08 07:05 | 26.81068 | 124.20312 | 41053 ft | 521 kts | 44° |
| 2026-05-08 07:06 | 26.99622 | 124.45313 | 41049 ft | 523 kts | 44° |
| 2026-05-08 07:06 | 27.18243 | 124.70502 | 41055 ft | 525 kts | 44° |
| 2026-05-08 07:07 | 27.36889 | 124.95869 | 41058 ft | 527 kts | 44° |
| 2026-05-08 07:07 | 27.55676 | 125.21276 | 41064 ft | 528 kts | 44° |
| 2026-05-08 07:08 | 27.74499 | 125.46827 | 41060 ft | 530 kts | 44° |
| 2026-05-08 07:08 | 27.93333 | 125.72546 | 41061 ft | 532 kts | 44° |
| 2026-05-08 07:09 | 28.12194 | 125.98458 | 41080 ft | 534 kts | 44° |
| 2026-05-08 07:09 | 28.30958 | 126.24394 | 41075 ft | 536 kts | 44° |
| 2026-05-08 07:10 | 28.49974 | 126.50844 | 41072 ft | 537 kts | 44° |
| 2026-05-08 07:10 | 28.68828 | 126.77230 | 41064 ft | 539 kts | 45° |
| 2026-05-08 07:11 | 28.87575 | 127.03636 | 41069 ft | 539 kts | 45° |
| 2026-05-08 07:11 | 29.06438 | 127.30374 | 41064 ft | 541 kts | 45° |
| 2026-05-08 07:12 | 29.25267 | 127.57239 | 41080 ft | 541 kts | 45° |
| 2026-05-08 07:12 | 29.41042 | 127.79882 | 41089 ft | 542 kts | 45° |
| 2026-05-08 07:13 | 29.59847 | 128.07032 | 41062 ft | 544 kts | 46° |
| 2026-05-08 07:13 | 29.78560 | 128.34198 | 41061 ft | 546 kts | 46° |
| 2026-05-08 07:14 | 29.97373 | 128.61702 | 41059 ft | 547 kts | 46° |
| 2026-05-08 07:14 | 30.16159 | 128.89356 | 41039 ft | 547 kts | 46° |
| 2026-05-08 07:15 | 30.34905 | 129.17140 | 41056 ft | 549 kts | 46° |
| 2026-05-08 07:15 | 30.53646 | 129.45119 | 41043 ft | 549 kts | 46° |
| 2026-05-08 07:16 | 30.72334 | 129.73213 | 41034 ft | 550 kts | 47° |
| 2026-05-08 07:16 | 30.90188 | 130.02227 | 41022 ft | 555 kts | 53° |
| 2026-05-08 07:17 | 31.06398 | 130.32902 | 41008 ft | 556 kts | 54° |
| 2026-05-08 07:17 | 31.22564 | 130.63666 | 40991 ft | 556 kts | 54° |
| 2026-05-08 07:18 | 31.38688 | 130.94585 | 40970 ft | 557 kts | 54° |
| 2026-05-08 07:18 | 31.54740 | 131.25624 | 40953 ft | 559 kts | 55° |
| 2026-05-08 07:19 | 31.70798 | 131.56951 | 40862 ft | 560 kts | 55° |
| 2026-05-08 07:19 | 31.86783 | 131.88403 | 40929 ft | 560 kts | 55° |
| 2026-05-08 07:20 | 32.02706 | 132.19994 | 40905 ft | 561 kts | 56° |
| 2026-05-08 07:20 | 32.18018 | 132.52086 | 40945 ft | 563 kts | 62° |
| 2026-05-08 07:21 | 32.31872 | 132.85377 | 40915 ft | 566 kts | 61° |
| 2026-05-08 07:21 | 32.45839 | 133.18770 | 40901 ft | 566 kts | 61° |
| 2026-05-08 07:22 | 32.59698 | 133.52245 | 40895 ft | 566 kts | 61° |
| 2026-05-08 07:22 | 32.67925 | 133.72251 | 40891 ft | 566 kts | 62° |
| 2026-05-08 07:23 | 32.71375 | 133.80664 | 40890 ft | 567 kts | 62° |
| 2026-05-08 07:23 | 32.73809 | 133.86615 | 40886 ft | 567 kts | 62° |
| 2026-05-08 07:24 | 32.80109 | 134.02076 | 40886 ft | 568 kts | 62° |
| 2026-05-08 07:24 | 32.85411 | 134.19796 | 40890 ft | 570 kts | 73° |
| 2026-05-08 07:24 | 32.89862 | 134.37884 | 40870 ft | 570 kts | 73° |
| 2026-05-08 07:25 | 32.98789 | 134.74156 | 40883 ft | 570 kts | 73° |
| 2026-05-08 07:26 | 33.16163 | 135.25832 | 40847 ft | 551 kts | 33° |
| 2026-05-08 07:26 | 33.40619 | 135.47920 | 40840 ft | 552 kts | 31° |
| 2026-05-08 07:27 | 33.65113 | 135.70256 | 40829 ft | 554 kts | 31° |
| 2026-05-08 07:27 | 33.89727 | 135.92514 | 40825 ft | 554 kts | 31° |
| 2026-05-08 07:28 | 34.14171 | 136.14773 | 40817 ft | 556 kts | 31° |
| 2026-05-08 07:28 | 34.39050 | 136.37472 | 40828 ft | 556 kts | 30° |
| 2026-05-08 07:29 | 34.63925 | 136.60196 | 40784 ft | 560 kts | 30° |
| 2026-05-08 07:29 | 34.88649 | 136.82882 | 40774 ft | 560 kts | 29° |
| 2026-05-08 07:30 | 35.14230 | 137.04539 | 40779 ft | 560 kts | 28° |
| 2026-05-08 07:30 | 35.39102 | 137.27593 | 40791 ft | 574 kts | 51° |
| 2026-05-08 07:30 | 35.46408 | 137.45113 | 40805 ft | 579 kts | 65° |
| 2026-05-08 07:31 | 35.53097 | 137.63072 | 40800 ft | 578 kts | 64° |
| 2026-05-08 07:31 | 35.66732 | 137.98718 | 40805 ft | 575 kts | 53° |
| 2026-05-08 07:31 | 35.78216 | 138.11847 | 40780 ft | 562 kts | 33° |
| 2026-05-08 07:32 | 35.90518 | 138.23760 | 40775 ft | 562 kts | 33° |
| 2026-05-08 07:32 | 36.15011 | 138.47853 | 40756 ft | 565 kts | 34° |
| 2026-05-08 07:33 | 36.39459 | 138.72242 | 40521 ft | 561 kts | 34° |
| 2026-05-08 07:33 | 36.51644 | 138.84500 | 39583 ft | 564 kts | 34° |
| 2026-05-08 07:33 | 36.63870 | 138.96809 | 38685 ft | 567 kts | 34° |
| 2026-05-08 07:33 | 36.76029 | 139.09141 | 36675 ft | 561 kts | 35° |
| 2026-05-08 07:34 | 36.88163 | 139.21433 | 33770 ft | 564 kts | 34° |
| 2026-05-08 07:34 | 37.00158 | 139.33593 | 31575 ft | 542 kts | 35° |
| 2026-05-08 07:34 | 37.11573 | 139.45286 | 29426 ft | 520 kts | 35° |
| 2026-05-08 07:34 | 37.22597 | 139.56497 | 27354 ft | 500 kts | 35° |
| 2026-05-08 07:35 | 37.33227 | 139.67384 | 25344 ft | 486 kts | 35° |
| 2026-05-08 07:35 | 37.42660 | 139.79232 | 23225 ft | 480 kts | 55° |
| 2026-05-08 07:35 | 37.49826 | 139.93036 | 21085 ft | 462 kts | 57° |
| 2026-05-08 07:35 | 37.54053 | 140.01260 | 19822 ft | 454 kts | 57° |
| 2026-05-08 07:36 | 37.57498 | 140.07895 | 18812 ft | 448 kts | 57° |
| 2026-05-08 07:36 | 37.60874 | 140.14412 | 17785 ft | 437 kts | 57° |
| 2026-05-08 07:36 | 37.65639 | 140.23657 | 16300 ft | 421 kts | 57° |
| 2026-05-08 07:36 | 37.71857 | 140.35683 | 14437 ft | 398 kts | 58° |
| 2026-05-08 07:37 | 37.74858 | 140.41513 | 13497 ft | 390 kts | 58° |
| 2026-05-08 07:37 | 37.77753 | 140.47171 | 12685 ft | 390 kts | 58° |
| 2026-05-08 07:37 | 37.80562 | 140.53061 | 11765 ft | 381 kts | 59° |
| 2026-05-08 07:37 | 37.83182 | 140.58615 | 11267 ft | 352 kts | 59° |
| 2026-05-08 07:38 | 37.84730 | 140.61894 | 10838 ft | 341 kts | 59° |
| 2026-05-08 07:38 | 37.85930 | 140.64455 | 10399 ft | 335 kts | 59° |
| 2026-05-08 07:38 | 37.87110 | 140.66976 | 9995 ft | 332 kts | 59° |
| 2026-05-08 07:38 | 37.88254 | 140.69474 | 9689 ft | 325 kts | 59° |
| 2026-05-08 07:39 | 37.89395 | 140.71936 | 9324 ft | 323 kts | 59° |
| 2026-05-08 07:39 | 37.90530 | 140.74372 | 8997 ft | 319 kts | 59° |
| 2026-05-08 07:39 | 37.91652 | 140.76791 | 8626 ft | 318 kts | 59° |
| 2026-05-08 07:39 | 37.92762 | 140.79198 | 8286 ft | 315 kts | 60° |
| 2026-05-08 07:40 | 37.93860 | 140.81579 | 7947 ft | 311 kts | 60° |
| 2026-05-08 07:40 | 37.94944 | 140.83937 | 7613 ft | 308 kts | 60° |
| 2026-05-08 07:40 | 37.96014 | 140.86264 | 7324 ft | 303 kts | 59° |
| 2026-05-08 07:40 | 37.97088 | 140.88565 | 6907 ft | 303 kts | 61° |
| 2026-05-08 07:41 | 37.98137 | 140.90862 | 6598 ft | 299 kts | 61° |
| 2026-05-08 07:41 | 37.99167 | 140.93129 | 6215 ft | 295 kts | 62° |
| 2026-05-08 07:41 | 38.00191 | 140.95372 | 5687 ft | 294 kts | 62° |
| 2026-05-08 07:41 | 38.01200 | 140.97574 | 5258 ft | 290 kts | 63° |
| 2026-05-08 07:42 | 38.02204 | 140.99766 | 4910 ft | 286 kts | 63° |
| 2026-05-08 07:42 | 38.03197 | 141.01938 | 4581 ft | 283 kts | 64° |
| 2026-05-08 07:42 | 38.04177 | 141.04086 | 4248 ft | 280 kts | 64° |
| 2026-05-08 07:42 | 38.05138 | 141.06197 | 4047 ft | 269 kts | 64° |
| 2026-05-08 07:43 | 38.06051 | 141.08194 | 3910 ft | 256 kts | 64° |
| 2026-05-08 07:43 | 38.06935 | 141.10136 | 3699 ft | 253 kts | 64° |
| 2026-05-08 07:43 | 38.07836 | 141.12039 | 3438 ft | 252 kts | 60° |
| 2026-05-08 07:43 | 38.09132 | 141.13546 | 3171 ft | 258 kts | 30° |
| 2026-05-08 07:44 | 38.10884 | 141.13987 | 2939 ft | 258 kts | 358° |
| 2026-05-08 07:44 | 38.12623 | 141.13744 | 2822 ft | 244 kts | 353° |
| 2026-05-08 07:44 | 38.14246 | 141.13373 | 2720 ft | 231 kts | 345° |
| 2026-05-08 07:44 | 38.15238 | 141.12727 | 2642 ft | 222 kts | 318° |
| 2026-05-08 07:45 | 38.15482 | 141.12423 | 2617 ft | 217 kts | 308° |
| 2026-05-08 07:45 | 38.15992 | 141.10908 | 2538 ft | 198 kts | 270° |
| 2026-05-08 07:45 | 38.15931 | 141.09196 | 2475 ft | 193 kts | 258° |
| 2026-05-08 07:46 | 38.15741 | 141.07505 | 2381 ft | 193 kts | 257° |
| 2026-05-08 07:46 | 38.15548 | 141.05837 | 2316 ft | 184 kts | 258° |
| 2026-05-08 07:46 | 38.15373 | 141.04354 | 2330 ft | 157 kts | 257° |
| 2026-05-08 07:46 | 38.15249 | 141.03065 | 2312 ft | 140 kts | 257° |
| 2026-05-08 07:47 | 38.15125 | 141.01855 | 2323 ft | 137 kts | 257° |
| 2026-05-08 07:47 | 38.14991 | 141.00637 | 2117 ft | 145 kts | 257° |
| 2026-05-08 07:47 | 38.14828 | 140.99346 | 1684 ft | 150 kts | 258° |
| 2026-05-08 07:47 | 38.14683 | 140.97996 | 1135 ft | 159 kts | 261° |
| 2026-05-08 07:48 | 38.14540 | 140.96573 | 567 ft | 163 kts | 263° |
| 2026-05-08 07:48 | 38.14427 | 140.95205 | 306 ft | 147 kts | 261° |
| 2026-05-08 07:48 | 38.14307 | 140.93983 | 151 ft | 132 kts | 259° |
| 2026-05-08 07:48 | 38.14185 | 140.92862 | 43 ft | 124 kts | 259° |
| 2026-05-08 07:49 | 38.14082 | 140.91895 | 26 ft | 75 kts | 264° |
| 2026-05-08 07:49 | 38.14041 | 140.91469 | 22 ft | 34 kts | 258° |
| 2026-05-08 07:49 | 38.13978 | 140.91410 | 24 ft | 6 kts | 149° |
| 2026-05-08 07:49 | 38.13942 | 140.91470 | 22 ft | 11 kts | 113° |
| 2026-05-08 07:50 | 38.13905 | 140.91574 | 19 ft | 15 kts | 116° |
| 2026-05-08 07:50 | 38.13900 | 140.91693 | 20 ft | 14 kts | 87° |
| 2026-05-08 07:50 | 38.13912 | 140.91843 | 19 ft | 19 kts | 83° |
| 2026-05-08 07:50 | 38.13931 | 140.92035 | 19 ft | 24 kts | 83° |
| 2026-05-08 07:51 | 38.13954 | 140.92265 | 19 ft | 28 kts | 83° |
| 2026-05-08 07:51 | 38.13982 | 140.92530 | 19 ft | 32 kts | 81° |
| 2026-05-08 07:51 | 38.14012 | 140.92817 | 19 ft | 31 kts | 80° |
| 2026-05-08 07:51 | 38.14001 | 140.92900 | 19 ft | 2 kts | 135° |
| 2026-05-08 07:52 | 38.13982 | 140.92914 | 21 ft | 4 kts | 157° |
| 2026-05-08 07:52 | 38.13942 | 140.92921 | 18 ft | 8 kts | 173° |
| 2026-05-08 07:52 | 38.13900 | 140.92927 | 18 ft | 4 kts | 173° |
| 2026-05-08 07:52 | 38.13899 | 140.92927 | 18 ft | 0 kts | 174° |